createdAt,value
2023-03-24T00:01:18.506Z,100871.38
2023-03-24T00:03:48.752Z,100871.94
2023-03-24T00:06:18.892Z,100874.59
2023-03-24T00:08:48.304Z,100862.59
2023-03-24T00:11:18.763Z,100869.63
2023-03-24T00:13:47.321Z,100872.38
2023-03-24T00:16:17.115Z,100867.13
2023-03-24T00:18:44.683Z,100865.16
2023-03-24T00:21:13.616Z,100876.09
2023-03-24T00:23:42.863Z,100871.94
2023-03-24T00:26:16.862Z,100873.38
2023-03-24T00:28:46.923Z,100867.81
2023-03-24T00:31:16.008Z,100865.19
2023-03-24T00:33:48.123Z,100872.47
2023-03-24T00:36:16.894Z,100868.41
2023-03-24T00:38:44.439Z,100875.22
2023-03-24T00:41:11.961Z,100866.88
2023-03-24T00:43:40.158Z,100875.22
2023-03-24T00:46:11.153Z,100870.41
2023-03-24T00:48:41.962Z,100868.56
2023-03-24T00:51:11.123Z,100862.06
2023-03-24T00:53:43.951Z,100870.75
2023-03-24T00:56:11.787Z,100866.88
2023-03-24T00:58:39.184Z,100869.97
2023-03-24T01:01:07.279Z,100877.03
2023-03-24T01:03:35.121Z,100888.63
2023-03-24T01:06:04.577Z,100882.53
2023-03-24T01:08:32.111Z,100882.16
2023-03-24T01:11:01.208Z,100882.13
2023-03-24T01:13:30.002Z,100882.81
2023-03-24T01:15:57.760Z,100873.22
2023-03-24T01:18:25.417Z,100874.69
2023-03-24T01:20:53.875Z,100869.47
2023-03-24T01:23:24.490Z,100857.25
2023-03-24T01:25:52.538Z,100857.91
2023-03-24T01:28:27.339Z,100841.41
2023-03-24T01:30:54.960Z,100838.34
2023-03-24T01:33:22.828Z,100836.75
2023-03-24T01:35:50.549Z,100827.47
2023-03-24T01:38:18.069Z,100825.88
2023-03-24T01:40:47.377Z,100835.91
2023-03-24T01:43:26.659Z,100837.75
2023-03-24T01:46:23.626Z,100836.34
2023-03-24T01:49:01.321Z,100831.84
2023-03-24T01:51:41.929Z,100840.88
2023-03-24T01:54:35.291Z,100835.25
2023-03-24T01:57:07.640Z,100827.38
2023-03-24T01:59:41.711Z,100824.00
2023-03-24T02:02:22.251Z,100824.41
2023-03-24T02:04:59.386Z,100824.81
2023-03-24T02:08:03.801Z,100834.13
2023-03-24T02:10:34.226Z,100825.81
2023-03-24T02:13:01.854Z,100827.00
2023-03-24T02:15:31.340Z,100833.47
2023-03-24T02:18:09.301Z,100819.41
2023-03-24T02:21:18.591Z,100829.94
2023-03-24T02:23:55.760Z,100824.81
2023-03-24T02:26:32.348Z,100820.41
2023-03-24T02:29:21.120Z,100825.50
2023-03-24T02:32:26.401Z,100818.69
2023-03-24T02:35:12.292Z,100812.59
2023-03-24T02:37:55.169Z,100807.63
2023-03-24T02:41:01.337Z,100811.50
2023-03-24T02:43:51.986Z,100804.69
2023-03-24T02:46:33.232Z,100807.16
2023-03-24T02:49:22.307Z,100797.25
2023-03-24T02:52:01.232Z,100796.66
2023-03-24T02:54:48.394Z,100796.59
2023-03-24T02:57:18.842Z,100798.09
2023-03-24T03:00:15.363Z,100795.84
2023-03-24T03:03:31.141Z,100790.38
2023-03-24T03:06:09.155Z,100800.66
2023-03-24T03:08:38.687Z,100798.09
2023-03-24T03:11:10.342Z,100800.66
2023-03-24T03:13:43.192Z,100799.53
2023-03-24T03:16:15.961Z,100792.75
2023-03-24T03:18:50.168Z,100802.28
2023-03-24T03:21:22.918Z,100796.97
2023-03-24T03:24:06.189Z,100794.72
2023-03-24T03:26:34.487Z,100796.00
2023-03-24T03:29:11.754Z,100799.44
2023-03-24T03:31:44.426Z,100795.91
2023-03-24T03:34:22.420Z,100793.16
2023-03-24T03:36:57.734Z,100790.63
2023-03-24T03:39:31.441Z,100780.88
2023-03-24T03:42:02.328Z,100781.56
2023-03-24T03:44:31.268Z,100784.28
2023-03-24T03:46:59.166Z,100781.38
2023-03-24T03:49:40.501Z,100786.06
2023-03-24T03:52:08.222Z,100783.88
2023-03-24T03:54:37.895Z,100785.50
2023-03-24T03:57:06.168Z,100774.25
2023-03-24T03:59:42.505Z,100780.88
2023-03-24T04:02:32.614Z,100773.84
2023-03-24T04:05:26.141Z,100779.06
2023-03-24T04:08:10.692Z,100774.41
2023-03-24T04:10:58.310Z,100779.22
2023-03-24T04:13:33.483Z,100779.19
2023-03-24T04:16:48.919Z,100782.28
2023-03-24T04:19:33.767Z,100777.22
2023-03-24T04:22:26.977Z,100778.38
2023-03-24T04:25:37.471Z,100775.53
2023-03-24T04:28:14.935Z,100779.22
2023-03-24T04:30:55.978Z,100781.72
2023-03-24T04:33:35.278Z,100780.75
2023-03-24T04:36:17.039Z,100795.16
2023-03-24T04:39:05.162Z,100786.38
2023-03-24T04:41:41.705Z,100789.44
2023-03-24T04:44:17.681Z,100775.47
2023-03-24T04:47:03.577Z,100783.97
2023-03-24T04:49:31.279Z,100784.09
2023-03-24T04:51:58.634Z,100777.56
2023-03-24T04:54:28.324Z,100775.47
2023-03-24T04:57:04.293Z,100781.91
2023-03-24T04:59:40.639Z,100784.00
2023-03-24T05:02:09.106Z,100784.31
2023-03-24T05:05:02.837Z,100790.75
2023-03-24T05:07:35.476Z,100791.88
2023-03-24T05:10:07.769Z,100794.56
2023-03-24T05:12:41.114Z,100800.84
2023-03-24T05:15:28.720Z,100802.44
2023-03-24T05:18:07.504Z,100801.81
2023-03-24T05:20:34.872Z,100814.94
2023-03-24T05:23:12.260Z,100810.63
2023-03-24T05:25:40.960Z,100817.03
2023-03-24T05:28:08.415Z,100818.09
2023-03-24T05:30:36.303Z,100815.19
2023-03-24T05:33:13.735Z,100811.97
2023-03-24T05:35:41.237Z,100809.91
2023-03-24T05:38:09.146Z,100824.78
2023-03-24T05:40:37.089Z,100818.38
2023-03-24T05:43:13.316Z,100818.38
2023-03-24T05:45:46.676Z,100821.88
2023-03-24T05:48:23.693Z,100831.97
2023-03-24T05:51:04.022Z,100824.59
2023-03-24T05:53:31.508Z,100832.25
2023-03-24T05:56:16.946Z,100830.94
2023-03-24T05:59:02.692Z,100845.63
2023-03-24T06:01:58.629Z,100844.63
2023-03-24T06:04:46.620Z,100848.75
2023-03-24T06:07:17.053Z,100847.94
2023-03-24T06:09:51.029Z,100849.47
2023-03-24T06:12:19.199Z,100846.91
2023-03-24T06:15:00.930Z,100844.50
2023-03-24T06:17:30.271Z,100839.88
2023-03-24T06:20:06.108Z,100834.00
2023-03-24T06:23:02.834Z,100828.81
2023-03-24T06:25:44.966Z,100838.34
2023-03-24T06:28:22.752Z,100832.91
2023-03-24T06:30:50.983Z,100831.78
2023-03-24T06:33:25.920Z,100837.78
2023-03-24T06:35:54.579Z,100832.31
2023-03-24T06:38:22.292Z,100830.28
2023-03-24T06:40:49.775Z,100830.47
2023-03-24T06:43:17.420Z,100834.19
2023-03-24T06:45:46.002Z,100842.22
2023-03-24T06:48:24.136Z,100841.91
2023-03-24T06:50:56.315Z,100839.91
2023-03-24T06:53:23.761Z,100847.59
2023-03-24T06:55:51.786Z,100841.84
2023-03-24T06:58:21.590Z,100840.00
2023-03-24T07:01:05.295Z,100845.28
2023-03-24T07:03:35.065Z,100845.50
2023-03-24T07:06:18.553Z,100848.53
2023-03-24T07:08:50.694Z,100838.94
2023-03-24T07:11:18.725Z,100843.84
2023-03-24T07:13:52.950Z,100848.34
2023-03-24T07:16:20.773Z,100857.94
2023-03-24T07:18:54.816Z,100860.41
2023-03-24T07:21:22.265Z,100862.91
2023-03-24T07:23:51.475Z,100858.78
2023-03-24T07:26:27.386Z,100859.72
2023-03-24T07:28:59.134Z,100859.41
2023-03-24T07:31:38.120Z,100864.31
2023-03-24T07:34:09.173Z,100871.78
2023-03-24T07:36:38.599Z,100870.38
2023-03-24T07:39:09.507Z,100873.59
2023-03-24T07:41:37.254Z,100866.09
2023-03-24T07:44:12.398Z,100854.19
2023-03-24T07:46:42.076Z,100863.75
2023-03-24T07:49:18.844Z,100862.13
2023-03-24T07:51:54.587Z,100860.94
2023-03-24T07:54:30.101Z,100860.16
2023-03-24T07:56:57.636Z,100854.66
2023-03-24T07:59:26.797Z,100851.94
2023-03-24T08:02:17.796Z,100858.81
2023-03-24T08:04:54.252Z,100854.50
2023-03-24T08:07:55.993Z,100856.59
2023-03-24T08:10:29.509Z,100857.88
2023-03-24T08:12:57.815Z,100855.34
2023-03-24T08:15:26.483Z,100856.97
2023-03-24T08:17:56.401Z,100856.28
2023-03-24T08:20:27.187Z,100860.25
2023-03-24T08:22:54.875Z,100860.63
2023-03-24T08:25:25.702Z,100855.56
2023-03-24T08:27:54.326Z,100852.09
2023-03-24T08:30:26.406Z,100856.47
2023-03-24T08:32:54.984Z,100853.16
2023-03-24T08:35:25.919Z,100852.63
2023-03-24T08:37:53.252Z,100860.41
2023-03-24T08:40:24.266Z,100856.78
2023-03-24T08:43:00.967Z,100858.38
2023-03-24T08:45:31.524Z,100861.03
2023-03-24T08:48:01.405Z,100867.50
2023-03-24T08:50:32.800Z,100860.69
2023-03-24T08:53:00.178Z,100866.88
2023-03-24T08:55:27.904Z,100865.91
2023-03-24T08:57:56.039Z,100865.53
2023-03-24T09:00:24.683Z,100862.69
2023-03-24T09:02:54.497Z,100863.09
2023-03-24T09:05:33.310Z,100859.72
2023-03-24T09:08:08.669Z,100856.84
2023-03-24T09:10:36.360Z,100856.97
2023-03-24T09:13:04.555Z,100847.16
2023-03-24T09:15:32.370Z,100848.94
2023-03-24T09:17:59.972Z,100839.53
2023-03-24T09:20:27.434Z,100849.50
2023-03-24T09:22:55.946Z,100853.53
2023-03-24T09:25:23.644Z,100854.69
2023-03-24T09:27:51.162Z,100850.25
2023-03-24T09:30:19.061Z,100856.16
2023-03-24T09:32:46.715Z,100847.84
2023-03-24T09:35:15.143Z,100848.66
2023-03-24T09:37:43.751Z,100857.28
2023-03-24T09:40:20.727Z,100849.00
2023-03-24T09:42:55.737Z,100848.09
2023-03-24T09:45:26.404Z,100856.91
2023-03-24T09:47:59.556Z,100847.34
2023-03-24T09:50:36.989Z,100836.44
2023-03-24T09:53:21.433Z,100844.63
2023-03-24T09:55:49.575Z,100837.59
2023-03-24T09:58:20.014Z,100841.81
2023-03-24T10:00:47.689Z,100839.53
2023-03-24T10:03:21.429Z,100844.59
2023-03-24T10:06:13.019Z,100853.69
2023-03-24T10:08:48.947Z,100856.72
2023-03-24T10:11:37.753Z,100852.94
2023-03-24T10:14:22.808Z,100853.06
2023-03-24T10:17:06.776Z,100853.38
2023-03-24T10:19:36.944Z,100842.31
2023-03-24T10:22:27.893Z,100840.00
2023-03-24T10:25:04.844Z,100833.38
2023-03-24T10:27:39.195Z,100812.09
2023-03-24T10:30:29.319Z,100825.97
2023-03-24T10:32:56.869Z,100818.81
2023-03-24T10:35:38.405Z,100817.69
2023-03-24T10:38:32.007Z,100820.69
2023-03-24T10:41:00.938Z,100810.34
2023-03-24T10:43:29.750Z,100808.44
2023-03-24T10:45:59.628Z,100806.63
2023-03-24T10:48:51.083Z,100796.50
2023-03-24T10:51:27.061Z,100810.22
2023-03-24T10:54:22.810Z,100811.03
2023-03-24T10:56:57.858Z,100811.84
2023-03-24T10:59:33.233Z,100809.25
2023-03-24T11:02:09.559Z,100804.53
2023-03-24T11:04:40.646Z,100794.63
2023-03-24T11:07:16.118Z,100779.31
2023-03-24T11:09:45.773Z,100791.72
2023-03-24T11:12:24.609Z,100785.22
2023-03-24T11:14:57.562Z,100784.94
2023-03-24T11:17:24.963Z,100770.50
2023-03-24T11:19:54.284Z,100766.41
2023-03-24T11:22:22.245Z,100763.09
2023-03-24T11:24:52.755Z,100762.88
2023-03-24T11:27:20.360Z,100763.50
2023-03-24T11:29:53.948Z,100765.13
2023-03-24T11:32:27.290Z,100764.59
2023-03-24T11:35:07.548Z,100755.94
2023-03-24T11:37:37.106Z,100771.97
2023-03-24T11:40:13.762Z,100753.66
2023-03-24T11:42:46.124Z,100759.72
2023-03-24T11:45:46.023Z,100742.28
2023-03-24T11:48:35.704Z,100736.16
2023-03-24T11:51:05.667Z,100749.41
2023-03-24T11:53:48.122Z,100746.75
2023-03-24T11:56:30.283Z,100743.50
2023-03-24T11:59:03.610Z,100733.13
2023-03-24T12:01:39.350Z,100725.25
2023-03-24T12:04:29.383Z,100733.34
2023-03-24T12:07:18.005Z,100717.47
2023-03-24T12:09:54.405Z,100720.47
2023-03-24T12:12:36.542Z,100708.94
2023-03-24T12:15:14.635Z,100706.53
2023-03-24T12:18:05.876Z,100706.03
2023-03-24T12:20:42.956Z,100713.44
2023-03-24T12:23:24.988Z,100695.63
2023-03-24T12:26:14.342Z,100695.91
2023-03-24T12:28:47.783Z,100698.69
2023-03-24T12:31:41.722Z,100695.69
2023-03-24T12:34:33.740Z,100693.09
2023-03-24T12:37:28.475Z,100680.03
2023-03-24T12:40:19.388Z,100678.41
2023-03-24T12:42:46.962Z,100690.13
2023-03-24T12:45:38.774Z,100673.41
2023-03-24T12:48:30.776Z,100669.34
2023-03-24T12:51:29.245Z,100675.28
2023-03-24T12:54:09.533Z,100669.13
2023-03-24T12:56:53.688Z,100667.09
2023-03-24T12:59:28.881Z,100663.78
2023-03-24T13:02:08.624Z,100660.16
2023-03-24T13:04:40.883Z,100649.00
2023-03-24T13:07:11.966Z,100646.78
2023-03-24T13:10:05.112Z,100637.81
2023-03-24T13:13:06.218Z,100630.59
2023-03-24T13:15:43.143Z,100626.88
2023-03-24T13:18:18.142Z,100629.41
2023-03-24T13:20:54.467Z,100626.56
2023-03-24T13:23:34.267Z,100617.34
2023-03-24T13:26:22.037Z,100613.88
2023-03-24T13:29:08.177Z,100620.13
2023-03-24T13:31:42.007Z,100621.13
2023-03-24T13:34:26.069Z,100619.09
2023-03-24T13:37:00.291Z,100613.28
2023-03-24T13:39:29.524Z,100611.84
2023-03-24T13:41:59.252Z,100612.91
2023-03-24T13:44:40.486Z,100602.19
2023-03-24T13:47:15.232Z,100612.19
2023-03-24T13:49:53.872Z,100601.34
2023-03-24T13:52:40.119Z,100603.78
2023-03-24T13:55:21.506Z,100609.63
2023-03-24T13:58:23.268Z,100603.97
2023-03-24T14:01:09.153Z,100591.94
2023-03-24T14:03:41.967Z,100590.72
2023-03-24T14:06:17.277Z,100575.03
2023-03-24T14:08:53.736Z,100567.81
2023-03-24T14:11:41.456Z,100560.94
2023-03-24T14:14:14.937Z,100558.88
2023-03-24T14:17:02.286Z,100554.72
2023-03-24T14:19:41.897Z,100564.00
2023-03-24T14:22:21.565Z,100564.59
2023-03-24T14:25:06.928Z,100558.94
2023-03-24T14:27:42.876Z,100560.19
2023-03-24T14:30:11.019Z,100561.44
2023-03-24T14:33:00.191Z,100549.28
2023-03-24T14:35:44.357Z,100548.72
2023-03-24T14:38:15.453Z,100550.03
2023-03-24T14:40:52.282Z,100540.09
2023-03-24T14:43:27.326Z,100534.81
2023-03-24T14:46:00.708Z,100536.84
2023-03-24T14:48:33.812Z,100536.06
2023-03-24T14:51:08.877Z,100529.63
2023-03-24T14:53:38.564Z,100525.94
2023-03-24T14:56:16.641Z,100514.72
2023-03-24T14:58:48.755Z,100515.63
2023-03-24T15:01:17.388Z,100523.91
2023-03-24T15:04:06.864Z,100520.34
2023-03-24T15:06:44.415Z,100515.53
2023-03-24T15:09:11.853Z,100532.22
2023-03-24T15:11:41.397Z,100532.31
2023-03-24T15:14:24.476Z,100530.53
2023-03-24T15:16:55.784Z,100532.34
2023-03-24T15:19:26.659Z,100537.66
2023-03-24T15:22:10.635Z,100535.88
2023-03-24T15:24:41.240Z,100531.19
2023-03-24T15:27:08.519Z,100518.97
2023-03-24T15:29:41.500Z,100527.66
2023-03-24T15:32:32.114Z,100520.97
2023-03-24T15:35:05.793Z,100519.38
2023-03-24T15:37:33.299Z,100526.50
2023-03-24T15:40:12.912Z,100516.63
2023-03-24T15:42:44.331Z,100526.50
2023-03-24T15:45:26.153Z,100519.72
2023-03-24T15:47:54.671Z,100523.66
2023-03-24T15:50:39.740Z,100528.00
2023-03-24T15:53:23.402Z,100522.03
2023-03-24T15:56:22.046Z,100526.38
2023-03-24T15:58:51.357Z,100527.97
2023-03-24T16:01:27.371Z,100526.03
2023-03-24T16:03:55.301Z,100529.50
2023-03-24T16:06:36.833Z,100527.53
2023-03-24T16:09:10.649Z,100536.16
2023-03-24T16:11:38.140Z,100536.13
2023-03-24T16:14:32.800Z,100523.94
2023-03-24T16:17:03.054Z,100518.41
2023-03-24T16:19:30.680Z,100524.63
2023-03-24T16:21:58.128Z,100524.22
2023-03-24T16:24:25.491Z,100528.59
2023-03-24T16:26:52.850Z,100532.44
2023-03-24T16:29:23.004Z,100538.06
2023-03-24T16:31:52.587Z,100542.28
2023-03-24T16:34:21.363Z,100526.09
2023-03-24T16:36:51.126Z,100526.09
2023-03-24T16:39:28.887Z,100528.44
2023-03-24T16:41:56.681Z,100531.63
2023-03-24T16:44:24.642Z,100534.41
2023-03-24T16:46:54.388Z,100535.19
2023-03-24T16:49:23.867Z,100532.44
2023-03-24T16:51:52.837Z,100537.63
2023-03-24T16:54:20.853Z,100522.56
2023-03-24T16:56:48.488Z,100530.00
2023-03-24T16:59:15.932Z,100531.16
2023-03-24T17:01:47.965Z,100532.72
2023-03-24T17:04:16.962Z,100532.22
2023-03-24T17:06:50.824Z,100528.66
2023-03-24T17:09:18.886Z,100528.56
2023-03-24T17:11:52.325Z,100534.94
2023-03-24T17:14:19.904Z,100534.50
2023-03-24T17:16:49.226Z,100539.19
2023-03-24T17:19:19.427Z,100543.59
2023-03-24T17:21:56.964Z,100537.59
2023-03-24T17:24:25.657Z,100530.50
2023-03-24T17:26:53.100Z,100532.88
2023-03-24T17:29:20.692Z,100535.19
2023-03-24T17:31:48.162Z,100531.22
2023-03-24T17:34:21.580Z,100531.63
2023-03-24T17:36:51.395Z,100526.06
2023-03-24T17:39:21.254Z,100524.09
2023-03-24T17:41:48.862Z,100522.16
2023-03-24T17:44:16.374Z,100523.69
2023-03-24T17:46:43.808Z,100520.53
2023-03-24T17:49:11.120Z,100531.19
2023-03-24T17:51:38.622Z,100532.72
2023-03-24T17:54:06.066Z,100528.03
2023-03-24T17:56:33.443Z,100526.41
2023-03-24T17:59:03.113Z,100527.56
2023-03-24T18:01:31.014Z,100530.31
2023-03-24T18:03:58.468Z,100523.84
2023-03-24T18:06:27.439Z,100517.25
2023-03-24T18:08:54.808Z,100512.13
2023-03-24T18:11:22.305Z,100521.59
2023-03-24T18:13:49.825Z,100519.16
2023-03-24T18:16:21.882Z,100513.31
2023-03-24T18:18:51.025Z,100511.06
2023-03-24T18:21:19.654Z,100512.88
2023-03-24T18:23:48.518Z,100515.19
2023-03-24T18:26:17.874Z,100515.56
2023-03-24T18:28:46.060Z,100523.75
2023-03-24T18:31:20.146Z,100517.91
2023-03-24T18:33:48.964Z,100509.59
2023-03-24T18:36:21.286Z,100513.13
2023-03-24T18:38:49.211Z,100514.34
2023-03-24T18:41:18.445Z,100522.53
2023-03-24T18:43:48.216Z,100524.56
2023-03-24T18:46:16.641Z,100526.06
2023-03-24T18:48:44.480Z,100522.63
2023-03-24T18:51:12.310Z,100520.56
2023-03-24T18:53:39.904Z,100522.13
2023-03-24T18:56:08.423Z,100519.00
2023-03-24T18:58:38.073Z,100521.41
2023-03-24T19:01:15.108Z,100515.88
2023-03-24T19:03:44.116Z,100515.03
2023-03-24T19:06:13.706Z,100508.22
2023-03-24T19:08:44.744Z,100506.25
2023-03-24T19:11:13.801Z,100510.47
2023-03-24T19:13:41.628Z,100518.50
2023-03-24T19:16:10.548Z,100506.44
2023-03-24T19:18:38.283Z,100512.50
2023-03-24T19:21:06.837Z,100507.34
2023-03-24T19:23:34.758Z,100503.72
2023-03-24T19:26:02.711Z,100499.63
2023-03-24T19:28:32.380Z,100504.97
2023-03-24T19:31:05.680Z,100507.31
2023-03-24T19:33:33.219Z,100508.69
2023-03-24T19:36:00.649Z,100511.72
2023-03-24T19:38:29.160Z,100512.44
2023-03-24T19:40:56.650Z,100508.56
2023-03-24T19:43:25.202Z,100503.41
2023-03-24T19:45:54.442Z,100500.03
2023-03-24T19:48:22.963Z,100505.69
2023-03-24T19:50:53.145Z,100509.28
2023-03-24T19:53:21.705Z,100515.06
2023-03-24T19:55:50.455Z,100515.50
2023-03-24T19:58:18.295Z,100505.75
2023-03-24T20:00:45.846Z,100506.41
2023-03-24T20:03:13.266Z,100512.56
2023-03-24T20:05:40.807Z,100514.06
2023-03-24T20:08:08.286Z,100522.25
2023-03-24T20:10:37.131Z,100518.38
2023-03-24T20:13:04.441Z,100509.97
2023-03-24T20:15:31.813Z,100516.19
2023-03-24T20:17:59.257Z,100520.44
2023-03-24T20:20:26.552Z,100522.72
2023-03-24T20:22:53.977Z,100529.41
2023-03-24T20:25:22.361Z,100526.59
2023-03-24T20:27:49.766Z,100523.84
2023-03-24T20:30:18.796Z,100522.78
2023-03-24T20:32:46.383Z,100525.38
2023-03-24T20:35:13.878Z,100529.72
2023-03-24T20:37:41.343Z,100528.69
2023-03-24T20:40:12.047Z,100527.97
2023-03-24T20:42:39.422Z,100519.19
2023-03-24T20:45:07.767Z,100524.66
2023-03-24T20:47:36.512Z,100529.00
2023-03-24T20:50:05.982Z,100527.69
2023-03-24T20:52:33.494Z,100529.16
2023-03-24T20:55:01.608Z,100538.28
2023-03-24T20:57:31.117Z,100539.06
2023-03-24T20:59:58.459Z,100533.94
2023-03-24T21:02:25.980Z,100538.47
2023-03-24T21:04:53.402Z,100542.91
2023-03-24T21:07:20.801Z,100539.31
2023-03-24T21:09:48.145Z,100532.72
2023-03-24T21:12:16.172Z,100538.91
2023-03-24T21:14:46.709Z,100537.31
2023-03-24T21:17:14.102Z,100531.44
2023-03-24T21:19:46.812Z,100531.56
2023-03-24T21:22:15.459Z,100532.19
2023-03-24T21:24:42.851Z,100529.97
2023-03-24T21:27:10.760Z,100531.53
2023-03-24T21:29:38.256Z,100523.69
2023-03-24T21:32:06.002Z,100525.75
2023-03-24T21:34:33.293Z,100513.31
2023-03-24T21:37:01.560Z,100512.56
2023-03-24T21:39:29.140Z,100512.88
2023-03-24T21:41:56.484Z,100516.56
2023-03-24T21:44:23.785Z,100519.97
2023-03-24T21:46:51.136Z,100527.00
2023-03-24T21:49:19.193Z,100520.56
2023-03-24T21:51:46.834Z,100521.28
2023-03-24T21:54:15.069Z,100523.69
2023-03-24T21:56:42.583Z,100522.03
2023-03-24T21:59:11.245Z,100525.09
2023-03-24T22:01:38.758Z,100520.31
2023-03-24T22:04:08.682Z,100507.53
2023-03-24T22:06:37.682Z,100503.03
2023-03-24T22:09:06.904Z,100510.34
2023-03-24T22:11:35.066Z,100508.94
2023-03-24T22:14:03.654Z,100504.75
2023-03-24T22:16:32.959Z,100510.38
2023-03-24T22:19:01.495Z,100516.97
2023-03-24T22:21:29.074Z,100504.88
2023-03-24T22:23:56.699Z,100499.25
2023-03-24T22:26:24.139Z,100498.84
2023-03-24T22:28:51.429Z,100504.38
2023-03-24T22:31:23.182Z,100505.22
2023-03-24T22:33:50.687Z,100505.50
2023-03-24T22:36:18.157Z,100503.22
2023-03-24T22:38:45.492Z,100511.66
2023-03-24T22:41:13.242Z,100499.81
2023-03-24T22:43:41.667Z,100495.28
2023-03-24T22:46:10.512Z,100499.63
2023-03-24T22:48:39.162Z,100496.97
2023-03-24T22:51:06.936Z,100493.06
2023-03-24T22:53:34.399Z,100495.78
2023-03-24T22:56:01.948Z,100500.47
2023-03-24T22:58:29.354Z,100498.69
2023-03-24T23:00:56.966Z,100507.47
2023-03-24T23:03:24.375Z,100500.97
2023-03-24T23:05:51.975Z,100484.66
2023-03-24T23:08:19.625Z,100502.13
2023-03-24T23:10:47.740Z,100493.06
2023-03-24T23:13:17.118Z,100489.84
2023-03-24T23:15:48.242Z,100488.50
2023-03-24T23:18:16.744Z,100489.59
2023-03-24T23:20:45.238Z,100492.72
2023-03-24T23:23:13.586Z,100489.47
2023-03-24T23:25:43.377Z,100501.88
2023-03-24T23:28:12.603Z,100510.22
2023-03-24T23:30:41.329Z,100504.34
2023-03-24T23:33:09.051Z,100505.88
2023-03-24T23:35:37.497Z,100506.66
2023-03-24T23:38:06.677Z,100516.22
2023-03-24T23:40:34.173Z,100513.91
2023-03-24T23:43:01.939Z,100512.16
2023-03-24T23:45:29.381Z,100510.88
2023-03-24T23:47:56.988Z,100510.06
2023-03-24T23:50:24.373Z,100508.28
2023-03-24T23:52:51.789Z,100508.28
2023-03-24T23:55:20.957Z,100502.13
2023-03-24T23:57:51.828Z,100496.41
